Time;durP1;ratioP1;P1;durP2;ratioP2;P2;SDS_P1;SDS_P2;PMS_P1;PMS_P2;Temp;Humidity;BMP_temperature;BMP_pressure;BME280_temperature;BME280_humidity;BME280_pressure;Samples;Min_cycle;Max_cycle;Signal;HPM_P1;HPM_P2
2022/04/26 03:36:24;;;;;;;13.82;3.70;;;;;;;;;;4231630;33;20109;-63
2022/04/26 03:38:52;;;;;;;13.32;4.18;;;;;;;;;;4233990;33;20204;-63
2022/04/26 03:41:18;;;;;;;50.03;6.20;;;;;;;;;;4233795;33;20116;-58
2022/04/26 03:43:44;;;;;;;17.17;4.03;;;;;;;;;;4233734;33;20104;-58
2022/04/26 03:46:10;;;;;;;9.38;2.33;;;;;;;;;;4233909;33;20109;-59
2022/04/26 03:48:36;;;;;;;24.73;3.20;;;;;;;;;;4233630;33;20121;-59
2022/04/26 03:51:02;;;;;;;8.52;3.62;;;;;;;;;;4233503;33;20136;-57
2022/04/26 03:53:28;;;;;;;8.20;3.10;;;;;;;;;;4233189;33;20548;-58
2022/04/26 03:55:54;;;;;;;14.02;2.47;;;;;;;;;;4233601;33;20212;-56
2022/04/26 03:58:20;;;;;;;17.55;2.92;;;;;;;;;;4233642;33;20117;-56
2022/04/26 04:00:46;;;;;;;17.92;2.67;;;;;;;;;;4233829;33;20204;-56
2022/04/26 04:03:12;;;;;;;21.45;3.60;;;;;;;;;;4233631;33;20119;-57
2022/04/26 04:05:38;;;;;;;8.57;2.35;;;;;;;;;;4233757;33;20195;-57
2022/04/26 04:08:04;;;;;;;45.45;5.40;;;;;;;;;;4233735;33;20105;-56
2022/04/26 04:10:30;;;;;;;24.67;2.75;;;;;;;;;;4231918;33;20208;-58
2022/04/26 04:12:56;;;;;;;16.45;2.85;;;;;;;;;;4232140;33;20132;-56
2022/04/26 04:15:22;;;;;;;4.85;2.67;;;;;;;;;;4230928;33;20125;-56
2022/04/26 04:17:48;;;;;;;7.68;2.40;;;;;;;;;;4232347;33;20117;-59
2022/04/26 04:20:15;;;;;;;8.32;2.45;;;;;;;;;;4232420;33;20235;-59
2022/04/26 04:22:41;;;;;;;6.60;2.45;;;;;;;;;;4218551;33;20084;-59
2022/04/26 04:25:07;;;;;;;4.07;2.40;;;;;;;;;;4233880;33;20303;-59
2022/04/26 04:27:33;;;;;;;12.10;2.90;;;;;;;;;;4220490;33;20105;-59
2022/04/26 04:30:02;;;;;;;11.50;2.65;;;;;;;;;;4220982;33;20123;-58
2022/04/26 04:32:29;;;;;;;7.70;2.47;;;;;;;;;;4216704;34;20133;-64
2022/04/26 04:34:55;;;;;;;6.40;2.25;;;;;;;;;;4222027;33;20112;-62
2022/04/26 04:37:22;;;;;;;8.13;2.55;;;;;;;;;;4233081;33;20098;-59
2022/04/26 04:39:49;;;;;;;8.73;2.37;;;;;;;;;;4232706;33;20132;-59
2022/04/26 04:42:15;;;;;;;5.37;2.55;;;;;;;;;;4233180;33;20117;-59
2022/04/26 04:44:41;;;;;;;5.80;2.00;;;;;;;;;;4233265;33;20215;-58
2022/04/26 04:47:08;;;;;;;8.13;2.30;;;;;;;;;;4233234;33;20117;-60
2022/04/26 04:49:34;;;;;;;5.70;1.95;;;;;;;;;;4233254;33;20116;-59
2022/04/26 04:52:00;;;;;;;7.50;2.45;;;;;;;;;;4233169;33;20112;-59
2022/04/26 04:54:26;;;;;;;6.20;2.08;;;;;;;;;;4233155;33;20528;-58
2022/04/26 04:56:52;;;;;;;7.97;2.40;;;;;;;;;;4233140;33;20128;-59
2022/04/26 04:59:18;;;;;;;8.05;2.37;;;;;;;;;;4233079;33;20636;-59
2022/04/26 05:01:44;;;;;;;6.18;2.03;;;;;;;;;;4232812;33;20101;-59
2022/04/26 05:04:10;;;;;;;7.53;2.05;;;;;;;;;;4232923;33;20089;-59
2022/04/26 05:06:36;;;;;;;6.37;2.08;;;;;;;;;;4232918;33;20137;-59
2022/04/26 05:09:02;;;;;;;2.00;1.80;;;;;;;;;;4232862;33;20109;-59
2022/04/26 05:11:28;;;;;;;7.35;2.28;;;;;;;;;;4232866;33;20647;-59
2022/04/26 05:13:54;;;;;;;11.30;2.60;;;;;;;;;;4232978;33;20539;-59
2022/04/26 05:16:20;;;;;;;9.20;2.47;;;;;;;;;;4232795;33;20113;-59
2022/04/26 05:18:46;;;;;;;18.05;3.25;;;;;;;;;;4233219;33;20526;-59
2022/04/26 05:21:15;;;;;;;11.60;2.60;;;;;;;;;;4232793;33;20136;-59
2022/04/26 05:26:27;;;;;;;9.48;2.12;;;;;;;;;;4232662;33;20208;-60
2022/04/26 05:28:53;;;;;;;9.30;2.53;;;;;;;;;;4232880;33;20103;-59
2022/04/26 05:31:19;;;;;;;5.45;2.10;;;;;;;;;;4224730;33;20097;-58
2022/04/26 05:33:45;;;;;;;7.35;2.45;;;;;;;;;;4218870;34;20097;-58
2022/04/26 05:36:11;;;;;;;9.70;2.42;;;;;;;;;;4229392;33;20115;-60
2022/04/26 05:38:37;;;;;;;15.77;3.33;;;;;;;;;;4232708;33;20537;-58
2022/04/26 05:41:03;;;;;;;6.32;2.30;;;;;;;;;;4232532;33;20175;-59
2022/04/26 05:43:29;;;;;;;5.07;2.70;;;;;;;;;;4232549;33;20123;-59
2022/04/26 05:45:55;;;;;;;8.65;2.30;;;;;;;;;;4232466;33;20115;-59
2022/04/26 05:48:21;;;;;;;4.37;2.72;;;;;;;;;;4232814;33;20816;-58
2022/04/26 05:50:47;;;;;;;5.22;2.12;;;;;;;;;;4232398;33;20117;-60
2022/04/26 05:53:13;;;;;;;7.62;2.60;;;;;;;;;;4232466;33;20477;-63
2022/04/26 05:55:39;;;;;;;4.47;1.73;;;;;;;;;;4232386;33;20187;-63
2022/04/26 05:58:05;;;;;;;5.53;2.03;;;;;;;;;;4232741;33;20090;-62
2022/04/26 06:00:31;;;;;;;5.70;2.53;;;;;;;;;;4232359;33;20120;-62
2022/04/26 06:02:57;;;;;;;4.62;1.98;;;;;;;;;;4232806;33;20100;-62
2022/04/26 06:05:23;;;;;;;5.37;1.98;;;;;;;;;;4232340;33;20502;-62
2022/04/26 06:07:49;;;;;;;14.68;2.72;;;;;;;;;;4232624;33;20122;-62
2022/04/26 06:10:16;;;;;;;8.05;2.05;;;;;;;;;;4232341;33;20098;-61
2022/04/26 06:12:44;;;;;;;8.45;2.65;;;;;;;;;;4232555;33;20179;-62
2022/04/26 06:15:11;;;;;;;4.05;2.17;;;;;;;;;;4232297;33;20124;-61
2022/04/26 06:17:37;;;;;;;12.65;3.35;;;;;;;;;;4232270;33;20496;-62
2022/04/26 06:20:04;;;;;;;9.43;2.65;;;;;;;;;;4232404;33;20117;-62
2022/04/26 06:22:30;;;;;;;8.13;2.80;;;;;;;;;;4232392;33;20140;-62
2022/04/26 06:24:56;;;;;;;10.23;2.78;;;;;;;;;;4232522;33;20112;-63
2022/04/26 06:27:22;;;;;;;8.65;2.50;;;;;;;;;;4232268;33;20129;-63
2022/04/26 06:29:48;;;;;;;8.63;2.47;;;;;;;;;;4232276;33;20105;-61
2022/04/26 06:32:14;;;;;;;6.30;1.98;;;;;;;;;;4232227;33;20560;-63
2022/04/26 06:34:40;;;;;;;7.07;2.45;;;;;;;;;;4232100;33;20528;-61
2022/04/26 06:37:06;;;;;;;12.50;2.53;;;;;;;;;;4232136;33;20107;-61
2022/04/26 06:39:32;;;;;;;11.25;2.37;;;;;;;;;;4232135;33;20182;-62
2022/04/26 06:41:58;;;;;;;9.13;1.92;;;;;;;;;;4231990;33;20105;-62
2022/04/26 06:44:25;;;;;;;11.00;2.08;;;;;;;;;;4232019;33;20517;-61
2022/04/26 06:46:51;;;;;;;12.95;2.90;;;;;;;;;;4232120;33;20207;-61
2022/04/26 06:49:17;;;;;;;4.32;2.22;;;;;;;;;;4232116;33;20204;-62
2022/04/26 06:51:44;;;;;;;4.28;2.12;;;;;;;;;;4231999;33;20181;-64
2022/04/26 06:54:11;;;;;;;15.10;3.28;;;;;;;;;;4232045;33;20121;-63
2022/04/26 06:56:37;;;;;;;9.35;2.53;;;;;;;;;;4231437;33;20105;-65
2022/04/26 06:59:03;;;;;;;14.57;2.30;;;;;;;;;;4231969;33;20196;-65
2022/04/26 07:01:29;;;;;;;5.75;1.73;;;;;;;;;;4231944;33;20105;-65
2022/04/26 07:03:55;;;;;;;4.53;2.17;;;;;;;;;;4218971;33;20533;-66
2022/04/26 07:06:21;;;;;;;7.47;2.40;;;;;;;;;;4231674;33;20124;-65
2022/04/26 07:08:47;;;;;;;14.32;2.62;;;;;;;;;;4231972;33;20113;-64
2022/04/26 07:11:15;;;;;;;16.65;3.05;;;;;;;;;;4231674;33;20147;-65
2022/04/26 07:13:41;;;;;;;22.50;7.55;;;;;;;;;;4219056;33;20102;-64
2022/04/26 07:16:08;;;;;;;17.17;3.17;;;;;;;;;;4231667;33;20150;-64
2022/04/26 07:18:34;;;;;;;6.62;2.22;;;;;;;;;;4231809;33;20112;-66
2022/04/26 07:21:00;;;;;;;8.57;2.17;;;;;;;;;;4231482;33;20647;-64
2022/04/26 07:23:26;;;;;;;8.25;2.15;;;;;;;;;;4231807;33;20108;-66
2022/04/26 07:25:52;;;;;;;2.80;1.85;;;;;;;;;;4231832;33;20112;-63
2022/04/26 07:28:21;;;;;;;3.95;1.75;;;;;;;;;;4231593;33;20121;-64
2022/04/26 07:30:48;;;;;;;7.82;2.60;;;;;;;;;;4231537;33;20856;-64
2022/04/26 07:35:58;;;;;;;11.52;2.20;;;;;;;;;;4231495;33;20157;-63
2022/04/26 07:38:24;;;;;;;4.30;2.20;;;;;;;;;;4231788;33;20821;-63
2022/04/26 07:40:50;;;;;;;1.50;1.40;;;;;;;;;;4218639;33;20429;-64
2022/04/26 07:43:16;;;;;;;8.43;2.20;;;;;;;;;;4218441;33;20148;-62
2022/04/26 07:45:43;;;;;;;10.00;3.08;;;;;;;;;;4231476;33;20101;-64
2022/04/26 07:48:09;;;;;;;18.83;3.42;;;;;;;;;;4231060;33;20553;-64
2022/04/26 07:50:36;;;;;;;3.47;1.87;;;;;;;;;;4218621;33;20222;-63
2022/04/26 07:53:03;;;;;;;17.05;2.70;;;;;;;;;;4231721;33;20185;-63
2022/04/26 07:55:30;;;;;;;4.30;2.50;;;;;;;;;;4231367;33;20192;-65
2022/04/26 07:57:58;;;;;;;3.05;1.80;;;;;;;;;;4218405;33;20649;-64
2022/04/26 08:00:25;;;;;;;35.92;3.30;;;;;;;;;;4231278;33;20513;-63
2022/04/26 08:02:51;;;;;;;11.18;2.65;;;;;;;;;;4231484;33;20531;-63
2022/04/26 08:05:17;;;;;;;9.13;2.35;;;;;;;;;;4231502;33;20199;-62
2022/04/26 08:07:44;;;;;;;35.63;3.37;;;;;;;;;;4232253;33;20497;-62
2022/04/26 08:10:13;;;;;;;7.93;2.35;;;;;;;;;;4233502;33;20096;-63
2022/04/26 08:12:40;;;;;;;12.82;2.60;;;;;;;;;;4233551;33;20132;-63
2022/04/26 08:15:06;;;;;;;4.70;1.75;;;;;;;;;;4233555;33;20108;-64
2022/04/26 08:17:32;;;;;;;4.40;2.20;;;;;;;;;;4233466;33;20113;-62
2022/04/26 08:19:58;;;;;;;2.40;1.52;;;;;;;;;;4248205;33;20112;-63
2022/04/26 08:22:24;;;;;;;12.32;3.00;;;;;;;;;;4247573;33;20523;-61
2022/04/26 08:27:35;;;;;;;10.17;2.47;;;;;;;;;;4247425;33;20124;-64
2022/04/26 08:30:03;;;;;;;4.15;1.77;;;;;;;;;;4247437;33;20105;-64
2022/04/26 08:32:38;;;;;;;2.75;1.67;;;;;;;;;;4222546;33;20163;-63
2022/04/26 08:35:06;;;;;;;7.95;2.00;;;;;;;;;;4242951;33;20549;-62
2022/04/26 08:37:34;;;;;;;12.20;3.05;;;;;;;;;;4233240;33;20124;-63
2022/04/26 08:40:00;;;;;;;6.05;3.10;;;;;;;;;;4233597;33;20098;-63
2022/04/26 08:42:44;;;;;;;7.45;2.12;;;;;;;;;;4233353;33;20124;-63
2022/04/26 08:45:12;;;;;;;3.62;2.10;;;;;;;;;;4233286;33;20199;-65
2022/04/26 08:53:08;;;;;;;14.70;3.00;;;;;;;;;;4222435;33;20101;-65
2022/04/26 08:55:42;;;;;;;29.00;3.17;;;;;;;;;;4233242;33;20104;-65
2022/04/26 08:58:11;;;;;;;15.48;2.78;;;;;;;;;;4233069;33;20208;-63
2022/04/26 09:00:40;;;;;;;3.37;2.00;;;;;;;;;;4220155;33;20089;-65
2022/04/26 09:03:11;;;;;;;4.43;2.03;;;;;;;;;;4233481;33;20128;-65
2022/04/26 09:05:37;;;;;;;8.80;2.15;;;;;;;;;;4233366;33;20124;-66
2022/04/26 09:08:22;;;;;;;19.45;2.78;;;;;;;;;;4233096;33;20101;-65
2022/04/26 09:10:49;;;;;;;10.50;2.63;;;;;;;;;;4220020;33;20151;-64
2022/04/26 09:13:17;;;;;;;3.35;2.25;;;;;;;;;;4232943;33;20113;-65
2022/04/26 09:15:55;;;;;;;8.95;2.60;;;;;;;;;;4233011;33;20104;-65
2022/04/26 09:18:24;;;;;;;5.25;2.40;;;;;;;;;;4232487;33;20129;-63
2022/04/26 09:20:55;;;;;;;9.68;3.15;;;;;;;;;;4233098;33;20180;-61
2022/04/26 09:23:22;;;;;;;3.78;1.95;;;;;;;;;;4219713;33;20112;-61
2022/04/26 09:25:52;;;;;;;7.15;3.22;;;;;;;;;;4232780;33;20572;-62
2022/04/26 09:28:22;;;;;;;14.95;5.62;;;;;;;;;;4232818;33;20129;-62
2022/04/26 09:30:49;;;;;;;8.48;2.35;;;;;;;;;;4232809;33;20480;-62
2022/04/26 09:33:38;;;;;;;6.72;3.25;;;;;;;;;;4232821;33;20108;-61
2022/04/26 09:36:10;;;;;;;12.50;4.12;;;;;;;;;;4232760;33;20136;-62
2022/04/26 09:38:37;;;;;;;9.00;2.50;;;;;;;;;;4232661;33;20113;-61
2022/04/26 09:41:05;;;;;;;6.35;1.85;;;;;;;;;;4232694;33;20097;-61
2022/04/26 09:43:32;;;;;;;9.55;3.75;;;;;;;;;;4232776;33;20113;-61
2022/04/26 09:45:59;;;;;;;11.27;3.25;;;;;;;;;;4232707;33;20116;-60
2022/04/26 09:48:35;;;;;;;3.33;2.10;;;;;;;;;;4232595;33;20117;-62
2022/04/26 09:51:08;;;;;;;10.63;3.03;;;;;;;;;;4232639;33;20196;-62
2022/04/26 09:53:35;;;;;;;10.32;3.00;;;;;;;;;;4232468;33;20501;-63
2022/04/26 09:56:03;;;;;;;17.40;3.97;;;;;;;;;;4208161;33;20116;-63
2022/04/26 09:58:29;;;;;;;15.40;3.40;;;;;;;;;;4232670;33;20098;-63
2022/04/26 10:00:56;;;;;;;8.10;2.50;;;;;;;;;;4232600;33;20434;-62
2022/04/26 10:03:31;;;;;;;10.48;2.75;;;;;;;;;;4232590;33;20539;-62
2022/04/26 10:06:05;;;;;;;13.13;2.53;;;;;;;;;;4232603;33;20084;-62
2022/04/26 10:08:34;;;;;;;1.50;1.40;;;;;;;;;;4232471;33;20177;-63
2022/04/26 10:11:02;;;;;;;26.50;4.37;;;;;;;;;;4232495;33;20109;-62
2022/04/26 10:13:35;;;;;;;17.58;2.65;;;;;;;;;;4232362;33;20123;-62
2022/04/26 10:16:12;;;;;;;1.55;1.35;;;;;;;;;;4196205;33;20127;-62
2022/04/26 10:18:45;;;;;;;7.50;2.95;;;;;;;;;;4207432;33;20564;-61
2022/04/26 10:21:13;;;;;;;7.55;2.25;;;;;;;;;;4232051;33;20532;-62
2022/04/26 10:23:51;;;;;;;13.57;2.37;;;;;;;;;;4218856;33;20596;-62
2022/04/26 10:26:22;;;;;;;6.28;2.90;;;;;;;;;;4232204;33;20112;-62
2022/04/26 10:28:53;;;;;;;4.35;2.28;;;;;;;;;;4232364;33;20461;-61
2022/04/26 10:31:34;;;;;;;21.90;3.33;;;;;;;;;;4231279;33;20442;-62
2022/04/26 10:34:00;;;;;;;10.70;2.67;;;;;;;;;;4219336;33;20117;-62
2022/04/26 10:36:33;;;;;;;11.77;2.65;;;;;;;;;;4232093;33;20119;-62
2022/04/26 10:39:05;;;;;;;2.00;1.55;;;;;;;;;;4231969;33;20434;-61
2022/04/26 10:41:39;;;;;;;6.53;2.30;;;;;;;;;;4229691;33;20550;-62
2022/04/26 10:44:17;;;;;;;6.03;2.33;;;;;;;;;;4215818;33;20558;-62
2022/04/26 10:47:04;;;;;;;10.98;3.28;;;;;;;;;;4232115;33;20128;-64
2022/04/26 10:49:33;;;;;;;5.80;2.75;;;;;;;;;;4219771;33;20123;-62
2022/04/26 10:52:23;;;;;;;35.78;6.15;;;;;;;;;;4232060;33;20129;-62
2022/04/26 10:54:55;;;;;;;35.67;3.75;;;;;;;;;;4231994;33;20447;-62
2022/04/26 10:57:22;;;;;;;7.62;2.30;;;;;;;;;;4232418;33;20100;-64
2022/04/26 10:59:56;;;;;;;12.37;2.47;;;;;;;;;;4231954;33;20113;-64
2022/04/26 11:02:25;;;;;;;12.90;2.75;;;;;;;;;;4232138;33;20113;-62
2022/04/26 11:04:59;;;;;;;6.90;2.60;;;;;;;;;;4231860;33;20128;-61
2022/04/26 11:07:26;;;;;;;11.50;3.00;;;;;;;;;;4232002;33;20140;-62
2022/04/26 11:09:54;;;;;;;24.92;3.22;;;;;;;;;;4218625;33;20558;-61
2022/04/26 11:12:21;;;;;;;7.22;1.67;;;;;;;;;;4231939;33;20188;-61
2022/04/26 11:14:49;;;;;;;3.08;2.17;;;;;;;;;;4231721;33;20184;-61
2022/04/26 11:17:16;;;;;;;12.13;3.87;;;;;;;;;;4232034;33;20112;-62
2022/04/26 11:19:50;;;;;;;11.75;4.80;;;;;;;;;;4231725;33;20093;-63
2022/04/26 11:22:17;;;;;;;2.15;1.77;;;;;;;;;;4231858;33;20553;-62
2022/04/26 11:30:33;;;;;;;5.80;2.22;;;;;;;;;;4231738;33;20684;-63
2022/04/26 11:33:01;;;;;;;7.40;2.28;;;;;;;;;;4231927;33;20101;-62
2022/04/26 11:35:28;;;;;;;4.62;1.62;;;;;;;;;;4231685;33;20099;-63
2022/04/26 11:38:14;;;;;;;2.92;2.22;;;;;;;;;;4231290;33;20112;-62
2022/04/26 11:40:42;;;;;;;2.50;1.80;;;;;;;;;;4231587;33;20117;-62
2022/04/26 11:43:16;;;;;;;3.55;2.10;;;;;;;;;;4233774;33;20128;-63
2022/04/26 11:45:46;;;;;;;1.73;1.62;;;;;;;;;;4233803;33;20517;-61
2022/04/26 11:48:17;;;;;;;13.10;2.22;;;;;;;;;;4233667;33;20136;-60
2022/04/26 11:50:44;;;;;;;8.00;1.80;;;;;;;;;;4233703;33;20119;-61
2022/04/26 11:53:15;;;;;;;21.75;2.62;;;;;;;;;;4233738;33;20212;-60
2022/04/26 11:55:46;;;;;;;11.18;3.72;;;;;;;;;;4233542;33;20116;-61
2022/04/26 11:58:20;;;;;;;4.45;2.05;;;;;;;;;;4233590;33;20473;-61
2022/04/26 12:01:02;;;;;;;2.20;1.77;;;;;;;;;;4233581;33;20532;-62
2022/04/26 12:03:53;;;;;;;9.32;2.83;;;;;;;;;;4233629;33;20544;-61
2022/04/26 12:06:25;;;;;;;2.30;1.55;;;;;;;;;;4233459;33;20446;-61
2022/04/26 12:08:55;;;;;;;9.55;2.05;;;;;;;;;;4220825;33;20133;-60
2022/04/26 12:11:22;;;;;;;3.75;1.65;;;;;;;;;;4233592;33;20136;-61
2022/04/26 12:14:06;;;;;;;11.38;3.47;;;;;;;;;;4233736;33;20113;-60
2022/04/26 12:16:36;;;;;;;3.62;1.92;;;;;;;;;;4233376;33;20193;-59
2022/04/26 12:19:06;;;;;;;20.40;3.15;;;;;;;;;;4233550;33;20521;-61
2022/04/26 12:21:54;;;;;;;6.03;2.30;;;;;;;;;;4233280;33;20133;-61
2022/04/26 12:24:25;;;;;;;2.72;2.08;;;;;;;;;;4233406;33;20085;-61
2022/04/26 12:26:58;;;;;;;8.45;2.30;;;;;;;;;;4233258;33;20525;-61
2022/04/26 12:29:46;;;;;;;5.87;2.10;;;;;;;;;;4233309;33;20107;-61
2022/04/26 12:32:17;;;;;;;16.15;3.42;;;;;;;;;;4233157;33;20196;-62
2022/04/26 12:34:50;;;;;;;13.38;3.00;;;;;;;;;;4233129;33;20598;-62
2022/04/26 12:37:21;;;;;;;13.15;2.62;;;;;;;;;;4233267;33;20570;-61
2022/04/26 12:39:49;;;;;;;6.30;1.75;;;;;;;;;;4208556;33;20101;-59
2022/04/26 12:42:34;;;;;;;4.30;1.90;;;;;;;;;;4233637;33;20112;-61
2022/04/26 12:45:00;;;;;;;8.70;3.03;;;;;;;;;;4220426;33;20197;-60
2022/04/26 12:50:28;;;;;;;5.40;2.60;;;;;;;;;;4230838;33;20532;-62
2022/04/26 12:52:59;;;;;;;7.03;2.40;;;;;;;;;;4230559;33;20089;-62
2022/04/26 12:55:36;;;;;;;8.90;2.87;;;;;;;;;;4231946;33;20120;-62
2022/04/26 12:58:10;;;;;;;6.55;3.37;;;;;;;;;;4232789;33;20105;-62
2022/04/26 13:00:41;;;;;;;14.13;3.42;;;;;;;;;;4232881;33;20150;-62
2022/04/26 13:03:08;;;;;;;12.90;2.80;;;;;;;;;;4233104;33;20097;-61
2022/04/26 13:05:47;;;;;;;7.10;2.42;;;;;;;;;;4233251;33;20117;-61
2022/04/26 13:08:18;;;;;;;3.22;1.90;;;;;;;;;;4233107;33;20513;-61
2022/04/26 13:10:45;;;;;;;8.45;2.70;;;;;;;;;;4232916;33;20097;-61
2022/04/26 13:13:12;;;;;;;8.68;2.62;;;;;;;;;;4233045;33;20544;-61
2022/04/26 13:15:41;;;;;;;3.75;2.53;;;;;;;;;;4219151;33;20093;-63
2022/04/26 13:18:07;;;;;;;4.40;1.77;;;;;;;;;;4209392;33;20123;-62
2022/04/26 13:20:33;;;;;;;9.30;3.45;;;;;;;;;;4233305;33;20140;-61
2022/04/26 13:23:00;;;;;;;2.15;1.83;;;;;;;;;;4233029;33;20207;-61
2022/04/26 13:25:26;;;;;;;8.02;2.60;;;;;;;;;;4232970;33;20125;-61
2022/04/26 13:27:52;;;;;;;13.23;2.80;;;;;;;;;;4232976;33;20636;-62
2022/04/26 13:30:18;;;;;;;17.00;2.60;;;;;;;;;;4232698;33;20212;-61
2022/04/26 13:32:44;;;;;;;32.00;3.83;;;;;;;;;;4232824;33;20152;-62
2022/04/26 13:35:10;;;;;;;19.52;4.07;;;;;;;;;;4232761;33;20289;-62
2022/04/26 13:37:38;;;;;;;2.97;1.65;;;;;;;;;;4233190;33;20121;-61
2022/04/26 13:40:08;;;;;;;8.13;2.40;;;;;;;;;;4232612;33;20109;-61
2022/04/26 13:42:35;;;;;;;22.33;4.15;;;;;;;;;;4232869;33;20139;-62
2022/04/26 13:45:02;;;;;;;9.85;2.50;;;;;;;;;;4219743;33;20107;-62
2022/04/26 13:47:29;;;;;;;4.68;2.42;;;;;;;;;;4219800;33;20147;-61
2022/04/26 13:49:55;;;;;;;4.75;2.42;;;;;;;;;;4232631;33;20120;-62
2022/04/26 13:52:22;;;;;;;28.90;3.72;;;;;;;;;;4232604;33;20215;-60
2022/04/26 13:54:48;;;;;;;10.50;2.87;;;;;;;;;;4232516;33;20111;-61
2022/04/26 13:57:15;;;;;;;9.15;2.15;;;;;;;;;;4232591;33;20107;-61
2022/04/26 13:59:41;;;;;;;11.55;2.95;;;;;;;;;;4232809;33;20086;-61
2022/04/26 14:02:08;;;;;;;10.68;2.85;;;;;;;;;;4232599;33;20125;-62
2022/04/26 14:04:34;;;;;;;10.60;2.50;;;;;;;;;;4232587;33;20207;-65
2022/04/26 14:07:00;;;;;;;11.48;2.75;;;;;;;;;;4219729;33;20101;-66
2022/04/26 14:09:26;;;;;;;15.88;3.45;;;;;;;;;;4220084;33;20544;-60
2022/04/26 14:11:55;;;;;;;8.57;2.50;;;;;;;;;;4232331;33;20209;-61
2022/04/26 14:22:36;;;;;;;10.07;3.67;;;;;;;;;;4232545;33;20112;-59
2022/04/26 14:25:08;;;;;;;15.48;3.22;;;;;;;;;;4232614;33;20093;-59
2022/04/26 14:27:43;;;;;;;8.90;2.80;;;;;;;;;;4232498;33;20148;-59
2022/04/26 14:30:11;;;;;;;6.43;2.20;;;;;;;;;;4219524;33;20521;-59
2022/04/26 14:32:37;;;;;;;12.00;2.92;;;;;;;;;;4232206;33;20132;-59
2022/04/26 14:35:04;;;;;;;11.95;2.72;;;;;;;;;;4219024;33;20177;-59
2022/04/26 14:37:33;;;;;;;11.85;2.28;;;;;;;;;;4232051;33;20141;-58
2022/04/26 14:39:59;;;;;;;12.63;2.37;;;;;;;;;;4232251;33;20525;-58
2022/04/26 14:42:26;;;;;;;14.30;2.85;;;;;;;;;;4218986;33;20112;-61
2022/04/26 14:44:52;;;;;;;1.95;1.30;;;;;;;;;;4232144;33;20097;-61
2022/04/26 14:47:18;;;;;;;3.10;2.37;;;;;;;;;;4232260;33;20221;-60
2022/04/26 14:49:44;;;;;;;11.65;3.22;;;;;;;;;;4232211;33;20098;-60
2022/04/26 14:52:14;;;;;;;3.83;1.95;;;;;;;;;;4232117;33;20200;-59
2022/04/26 14:54:40;;;;;;;3.97;2.67;;;;;;;;;;4232264;33;20085;-60
2022/04/26 14:57:06;;;;;;;6.25;2.95;;;;;;;;;;4231902;33;20542;-61
2022/04/26 14:59:33;;;;;;;9.57;3.05;;;;;;;;;;4231952;33;20113;-61
2022/04/26 15:01:59;;;;;;;18.25;3.53;;;;;;;;;;4231896;33;20433;-61
2022/04/26 15:04:25;;;;;;;6.43;2.85;;;;;;;;;;4231882;33;20093;-60
2022/04/26 15:06:52;;;;;;;6.65;2.70;;;;;;;;;;4232011;33;20534;-59
2022/04/26 15:17:32;;;;;;;12.70;3.87;;;;;;;;;;4233173;33;20150;-59
2022/04/26 15:20:00;;;;;;;7.40;2.95;;;;;;;;;;4233823;33;20183;-58
2022/04/26 15:22:26;;;;;;;4.70;2.05;;;;;;;;;;4233806;33;20100;-59
2022/04/26 15:24:54;;;;;;;6.10;2.60;;;;;;;;;;4232417;33;20109;-61
2022/04/26 15:27:20;;;;;;;7.07;2.70;;;;;;;;;;4220473;33;20100;-61
2022/04/26 15:29:47;;;;;;;3.30;1.98;;;;;;;;;;4220487;33;20116;-61
2022/04/26 15:32:13;;;;;;;4.72;3.00;;;;;;;;;;4220564;33;20117;-62
2022/04/26 15:34:39;;;;;;;2.17;1.87;;;;;;;;;;4220508;33;20212;-61
2022/04/26 15:37:06;;;;;;;3.47;2.30;;;;;;;;;;4233812;33;20148;-61
2022/04/26 15:39:32;;;;;;;6.95;2.60;;;;;;;;;;4232762;33;20100;-60
2022/04/26 15:41:59;;;;;;;8.32;2.60;;;;;;;;;;4232956;33;20133;-60
2022/04/26 15:44:25;;;;;;;5.50;2.45;;;;;;;;;;4206971;33;20181;-60
2022/04/26 15:46:56;;;;;;;1.17;1.08;;;;;;;;;;4233613;33;20093;-60
2022/04/26 15:49:31;;;;;;;2.20;1.80;;;;;;;;;;4233227;33;20221;-62
2022/04/26 15:51:57;;;;;;;1.23;1.12;;;;;;;;;;4232740;33;20128;-60
2022/04/26 15:54:24;;;;;;;2.28;1.62;;;;;;;;;;4232878;33;20212;-61
2022/04/26 15:56:50;;;;;;;1.00;1.00;;;;;;;;;;4234516;33;20184;-61
2022/04/26 15:59:16;;;;;;;2.00;1.80;;;;;;;;;;4247670;33;20112;-60
2022/04/26 16:01:42;;;;;;;2.75;1.90;;;;;;;;;;4247251;33;20124;-62
2022/04/26 16:04:12;;;;;;;1.10;1.10;;;;;;;;;;4247397;33;20203;-61
2022/04/26 16:06:39;;;;;;;1.33;1.23;;;;;;;;;;4247167;33;20208;-61
2022/04/26 16:22:53;;;;;;;1.40;1.30;;;;;;;;;;4233378;33;20544;-59
2022/04/26 16:25:20;;;;;;;2.08;1.40;;;;;;;;;;4220175;33;20184;-62
2022/04/26 16:27:48;;;;;;;1.50;1.40;;;;;;;;;;4232127;33;20533;-60
2022/04/26 16:30:15;;;;;;;4.50;1.92;;;;;;;;;;4233059;33;20113;-60
2022/04/26 16:32:42;;;;;;;2.85;2.03;;;;;;;;;;4233025;33;20132;-62
2022/04/26 16:35:10;;;;;;;3.42;1.90;;;;;;;;;;4233492;33;20199;-62
2022/04/26 16:37:40;;;;;;;2.15;1.98;;;;;;;;;;4233429;33;20808;-62
2022/04/26 16:40:07;;;;;;;1.85;1.65;;;;;;;;;;4232978;33;20199;-62
2022/04/26 16:42:33;;;;;;;3.80;2.10;;;;;;;;;;4233174;33;20128;-62
2022/04/26 16:44:59;;;;;;;3.15;1.90;;;;;;;;;;4233424;33;20201;-62
2022/04/26 16:47:25;;;;;;;3.87;2.22;;;;;;;;;;4233287;33;20109;-61
2022/04/26 16:49:51;;;;;;;4.12;2.10;;;;;;;;;;4233470;33;20101;-61
2022/04/26 16:52:17;;;;;;;7.68;2.03;;;;;;;;;;4233266;33;20116;-61
2022/04/26 16:54:43;;;;;;;5.55;2.10;;;;;;;;;;4233076;33;20141;-62
2022/04/26 16:57:09;;;;;;;2.85;2.05;;;;;;;;;;4221790;33;20123;-61
2022/04/26 16:59:35;;;;;;;7.32;1.92;;;;;;;;;;4219169;34;20104;-61
2022/04/26 17:02:02;;;;;;;2.17;1.87;;;;;;;;;;4219073;34;20102;-61
2022/04/26 17:04:28;;;;;;;2.85;2.00;;;;;;;;;;4218992;34;20225;-61
2022/04/26 17:06:54;;;;;;;8.40;2.45;;;;;;;;;;4219002;34;20212;-61
2022/04/26 17:09:20;;;;;;;2.70;2.05;;;;;;;;;;4223274;33;20509;-61
2022/04/26 17:11:49;;;;;;;6.78;2.08;;;;;;;;;;4232987;33;20128;-61
2022/04/26 17:14:17;;;;;;;5.30;1.90;;;;;;;;;;4232905;33;20112;-62
2022/04/26 17:16:45;;;;;;;10.45;2.40;;;;;;;;;;4233003;33;20117;-62
2022/04/26 17:19:12;;;;;;;9.00;2.05;;;;;;;;;;4233087;33;20450;-63
2022/04/26 17:21:38;;;;;;;4.12;1.92;;;;;;;;;;4232910;33;20465;-61
2022/04/26 17:25:13;;;;;;;6.68;3.33;;;;;;;;;;4219869;33;20105;-62
2022/04/26 17:26:51;;;;;;;2.60;1.48;;;;;;;;;;4232880;33;20104;-61
2022/04/26 17:29:19;;;;;;;8.07;2.03;;;;;;;;;;4232932;33;20128;-61
2022/04/26 17:31:48;;;;;;;2.47;2.12;;;;;;;;;;4232966;33;20128;-61
2022/04/26 17:34:14;;;;;;;10.20;2.35;;;;;;;;;;4232756;33;20110;-61
2022/04/26 17:36:42;;;;;;;10.68;2.25;;;;;;;;;;4233063;33;20193;-61
2022/04/26 17:39:10;;;;;;;6.28;3.12;;;;;;;;;;4232570;33;20108;-63
2022/04/26 17:41:37;;;;;;;7.68;2.72;;;;;;;;;;4219922;33;20176;-63
2022/04/26 17:44:03;;;;;;;9.55;2.53;;;;;;;;;;4232705;33;20588;-60
2022/04/26 17:46:29;;;;;;;3.62;2.12;;;;;;;;;;4232633;33;20480;-61
2022/04/26 17:48:55;;;;;;;3.37;1.98;;;;;;;;;;4232670;33;20519;-59
2022/04/26 17:51:21;;;;;;;13.82;2.33;;;;;;;;;;4232532;33;20208;-60
2022/04/26 17:56:32;;;;;;;5.72;2.47;;;;;;;;;;4232681;33;20141;-59
2022/04/26 17:58:59;;;;;;;6.25;2.47;;;;;;;;;;4232631;33;20163;-59
2022/04/26 18:01:25;;;;;;;6.07;2.55;;;;;;;;;;4219813;33;20117;-58
2022/04/26 18:03:51;;;;;;;10.25;2.33;;;;;;;;;;4232406;33;20116;-59
2022/04/26 18:06:17;;;;;;;10.45;2.05;;;;;;;;;;4219346;33;20096;-59
2022/04/26 18:08:44;;;;;;;1.50;1.40;;;;;;;;;;4232363;33;20501;-60
2022/04/26 18:11:10;;;;;;;3.05;2.40;;;;;;;;;;4232424;33;20139;-61
2022/04/26 18:13:37;;;;;;;6.28;2.25;;;;;;;;;;4232418;33;20195;-59
2022/04/26 18:16:05;;;;;;;3.33;2.10;;;;;;;;;;4232712;33;20143;-61
2022/04/26 18:18:31;;;;;;;6.90;2.15;;;;;;;;;;4232323;33;20109;-60
2022/04/26 18:20:58;;;;;;;7.65;2.25;;;;;;;;;;4232265;33;20192;-61
2022/04/26 18:23:25;;;;;;;4.62;2.03;;;;;;;;;;4232381;33;20502;-63
2022/04/26 18:28:49;;;;;;;7.97;2.40;;;;;;;;;;4209626;33;20120;-62
2022/04/26 18:31:17;;;;;;;5.12;2.22;;;;;;;;;;4232364;33;20124;-63
2022/04/26 18:33:44;;;;;;;4.47;2.42;;;;;;;;;;4232285;33;20105;-63
2022/04/26 18:36:12;;;;;;;4.43;2.22;;;;;;;;;;4232214;33;20109;-63
2022/04/26 18:38:41;;;;;;;4.47;1.85;;;;;;;;;;4232204;33;20207;-63
2022/04/26 18:41:10;;;;;;;3.95;2.00;;;;;;;;;;4219224;33;20195;-63
2022/04/26 18:43:37;;;;;;;3.37;1.90;;;;;;;;;;4219361;33;20127;-63
2022/04/26 18:46:04;;;;;;;5.78;2.95;;;;;;;;;;4207794;33;20093;-63
2022/04/26 18:48:30;;;;;;;7.93;2.45;;;;;;;;;;4232356;33;20124;-63
2022/04/26 18:50:57;;;;;;;7.93;2.37;;;;;;;;;;4231322;33;20088;-62
2022/04/26 18:53:24;;;;;;;13.70;2.55;;;;;;;;;;4218912;33;20208;-63
2022/04/26 18:55:52;;;;;;;5.37;2.03;;;;;;;;;;4231995;33;20088;-63
2022/04/26 18:58:18;;;;;;;4.87;2.42;;;;;;;;;;4231974;33;20199;-63
2022/04/26 19:00:45;;;;;;;5.53;2.30;;;;;;;;;;4232120;33;20177;-63
2022/04/26 19:03:11;;;;;;;7.93;1.83;;;;;;;;;;4231843;33;20536;-63
2022/04/26 19:05:38;;;;;;;4.43;2.20;;;;;;;;;;4232031;33;20116;-63
2022/04/26 19:08:05;;;;;;;6.15;1.77;;;;;;;;;;4232334;33;20212;-63
2022/04/26 19:13:15;;;;;;;4.75;1.98;;;;;;;;;;4231952;33;20193;-63
2022/04/26 19:15:41;;;;;;;6.60;2.30;;;;;;;;;;4218999;33;20097;-63
2022/04/26 19:18:07;;;;;;;3.67;1.98;;;;;;;;;;4231983;33;20105;-63
2022/04/26 19:20:34;;;;;;;4.25;1.83;;;;;;;;;;4232108;33;20121;-63